Time,TemperatureF,DewpointF,PressureIn,WindDirection,WindDirectionDegrees,WindSpeedMPH,WindSpeedGustMPH,Humidity,HourlyPrecipIn,Conditions,Clouds,dailyrainin,SoftwareType,DateUTC
2015-01-30 00:09:00,47.3,38.0,30.22,NW,312,7.0,13.0,70,0.00,,,0.00,weatherlink.com 1.10,2015-01-30 06:09:00,
2015-01-30 00:24:00,47.1,38.0,30.22,WNW,293,5.0,18.0,71,0.00,,,0.00,weatherlink.com 1.10,2015-01-30 06:24:00,
2015-01-30 00:39:00,46.9,38.0,30.22,NW,322,2.0,11.0,71,0.00,,,0.00,weatherlink.com 1.10,2015-01-30 06:39:00,
2015-01-30 00:54:00,46.4,37.0,30.23,NW,326,4.0,15.0,69,0.00,,,0.00,weatherlink.com 1.10,2015-01-30 06:54:00,
2015-01-30 01:09:00,45.7,36.0,30.23,North,8,6.0,14.0,69,0.00,,,0.00,weatherlink.com 1.10,2015-01-30 07:09:00,
2015-01-30 01:24:00,45.1,35.0,30.24,NNE,15,12.0,16.0,69,0.00,,,0.00,weatherlink.com 1.10,2015-01-30 07:24:00,
2015-01-30 01:39:00,44.3,34.0,30.25,North,8,10.0,18.0,68,0.00,,,0.00,weatherlink.com 1.10,2015-01-30 07:39:00,
2015-01-30 01:54:00,43.8,33.0,30.26,NNW,335,5.0,13.0,67,0.00,,,0.00,weatherlink.com 1.10,2015-01-30 07:54:00,
2015-01-30 02:09:00,43.7,34.0,30.25,North,360,7.0,19.0,68,0.00,,,0.00,weatherlink.com 1.10,2015-01-30 08:09:00,
2015-01-30 02:24:00,43.5,33.0,30.25,NW,307,6.0,16.0,67,0.00,,,0.00,weatherlink.com 1.10,2015-01-30 08:24:00,
2015-01-30 02:39:00,43.2,33.0,30.25,North,1,7.0,17.0,67,0.00,,,0.00,weatherlink.com 1.10,2015-01-30 08:39:00,
2015-01-30 02:54:00,42.9,33.0,30.25,NE,37,5.0,17.0,67,0.00,,,0.00,weatherlink.com 1.10,2015-01-30 08:54:00,
2015-01-30 03:10:00,42.6,32.0,30.25,NNE,23,4.0,15.0,67,0.00,,,0.00,weatherlink.com 1.10,2015-01-30 09:10:00,
2015-01-30 03:25:00,42.4,32.0,30.26,NNE,33,5.0,15.0,68,0.00,,,0.00,weatherlink.com 1.10,2015-01-30 09:25:00,
2015-01-30 03:40:00,42.3,32.0,30.26,WSW,255,4.0,18.0,67,0.00,,,0.00,weatherlink.com 1.10,2015-01-30 09:40:00,
2015-01-30 03:55:00,42.3,32.0,30.26,NNE,25,6.0,15.0,67,0.00,,,0.00,weatherlink.com 1.10,2015-01-30 09:55:00,
2015-01-30 04:10:00,42.2,32.0,30.25,North,8,6.0,15.0,67,0.00,,,0.00,weatherlink.com 1.10,2015-01-30 10:10:00,
2015-01-30 04:25:00,41.8,32.0,30.26,NE,44,3.0,8.0,68,0.00,,,0.00,weatherlink.com 1.10,2015-01-30 10:25:00,
2015-01-30 04:40:00,41.5,32.0,30.26,NNE,18,4.0,8.0,68,0.00,,,0.00,weatherlink.com 1.10,2015-01-30 10:40:00,
2015-01-30 04:55:00,41.4,32.0,30.26,NNW,338,4.0,7.0,68,0.00,,,0.00,weatherlink.com 1.10,2015-01-30 10:55:00,
2015-01-30 05:10:00,41.2,31.0,30.27,NW,316,1.0,10.0,68,0.00,,,0.00,weatherlink.com 1.10,2015-01-30 11:10:00,
2015-01-30 05:25:00,41.0,32.0,30.28,NNE,23,4.0,7.0,69,0.00,,,0.00,weatherlink.com 1.10,2015-01-30 11:25:00,
2015-01-30 05:40:00,40.9,31.0,30.29,North,357,2.0,8.0,68,0.00,,,0.00,weatherlink.com 1.10,2015-01-30 11:40:00,
2015-01-30 05:55:00,40.6,31.0,30.29,North,8,6.0,7.0,68,0.00,,,0.00,weatherlink.com 1.10,2015-01-30 11:55:00,
2015-01-30 06:10:00,40.5,30.0,30.30,North,9,10.0,10.0,67,0.00,,,0.00,weatherlink.com 1.10,2015-01-30 12:10:00,
2015-01-30 06:25:00,40.4,30.0,30.31,NW,314,4.0,10.0,67,0.00,,,0.00,weatherlink.com 1.10,2015-01-30 12:25:00,
2015-01-30 06:40:00,40.3,30.0,30.32,NW,314,4.0,13.0,67,0.00,,,0.00,weatherlink.com 1.10,2015-01-30 12:40:00,
2015-01-30 06:55:00,40.1,30.0,30.32,WNW,288,4.0,14.0,67,0.00,,,0.00,weatherlink.com 1.10,2015-01-30 12:55:00,
2015-01-30 07:10:00,40.2,30.0,30.32,NNW,330,5.0,9.0,67,0.00,,,0.00,weatherlink.com 1.10,2015-01-30 13:10:00,
2015-01-30 07:25:00,40.5,30.0,30.33,NNE,19,4.0,8.0,67,0.00,,,0.00,weatherlink.com 1.10,2015-01-30 13:25:00,
2015-01-30 07:40:00,41.1,31.0,30.32,WNW,287,4.0,12.0,67,0.00,,,0.00,weatherlink.com 1.10,2015-01-30 13:40:00,
2015-01-30 07:55:00,41.9,31.0,30.33,NNE,19,12.0,13.0,65,0.00,,,0.00,weatherlink.com 1.10,2015-01-30 13:55:00,
2015-01-30 08:10:00,42.2,30.0,30.34,NW,321,4.0,15.0,63,0.00,,,0.00,weatherlink.com 1.10,2015-01-30 14:10:00,
2015-01-30 08:25:00,42.9,31.0,30.34,NNW,333,4.0,12.0,62,0.00,,,0.00,weatherlink.com 1.10,2015-01-30 14:25:00,
2015-01-30 08:40:00,43.1,30.0,30.34,NNE,27,9.0,17.0,61,0.00,,,0.00,weatherlink.com 1.10,2015-01-30 14:40:00,
2015-01-30 08:55:00,43.8,31.0,30.35,NW,323,11.0,16.0,60,0.00,,,0.00,weatherlink.com 1.10,2015-01-30 14:55:00,
2015-01-30 09:10:00,43.9,31.0,30.35,North,354,6.0,17.0,60,0.00,,,0.00,weatherlink.com 1.10,2015-01-30 15:10:00,
2015-01-30 09:25:00,44.2,30.0,30.35,NNE,25,8.0,15.0,59,0.00,,,0.00,weatherlink.com 1.10,2015-01-30 15:25:00,
2015-01-30 09:40:00,44.9,31.0,30.36,NNW,343,2.0,10.0,58,0.00,,,0.00,weatherlink.com 1.10,2015-01-30 15:40:00,
2015-01-30 09:55:00,45.3,31.0,30.36,NNE,29,5.0,17.0,58,0.00,,,0.00,weatherlink.com 1.10,2015-01-30 15:55:00,
2015-01-30 10:10:00,46.1,31.0,30.37,NNE,15,6.0,13.0,56,0.00,,,0.00,weatherlink.com 1.10,2015-01-30 16:10:00,
2015-01-30 10:26:00,45.7,31.0,30.36,NNE,21,8.0,15.0,57,0.00,,,0.00,weatherlink.com 1.10,2015-01-30 16:26:00,
2015-01-30 10:41:00,46.4,31.0,30.36,NE,39,2.0,13.0,56,0.00,,,0.00,weatherlink.com 1.10,2015-01-30 16:41:00,
2015-01-30 10:56:00,47.3,32.0,30.36,NNE,23,13.0,15.0,55,0.00,,,0.00,weatherlink.com 1.10,2015-01-30 16:56:00,
2015-01-30 11:11:00,48.0,30.0,30.36,NE,36,7.0,11.0,51,0.00,,,0.00,weatherlink.com 1.10,2015-01-30 17:11:00,
2015-01-30 11:26:00,48.0,30.0,30.36,NNE,27,7.0,13.0,51,0.00,,,0.00,weatherlink.com 1.10,2015-01-30 17:26:00,
2015-01-30 11:41:00,48.3,30.0,30.35,NW,314,7.0,14.0,50,0.00,,,0.00,weatherlink.com 1.10,2015-01-30 17:41:00,
2015-01-30 11:56:00,48.6,30.0,30.34,NNE,27,5.0,14.0,49,0.00,,,0.00,weatherlink.com 1.10,2015-01-30 17:56:00,
2015-01-30 12:11:00,48.9,29.0,30.33,NNE,18,10.0,15.0,47,0.00,,,0.00,weatherlink.com 1.10,2015-01-30 18:11:00,
2015-01-30 12:26:00,49.2,29.0,30.33,NNE,17,6.0,13.0,46,0.00,,,0.00,weatherlink.com 1.10,2015-01-30 18:26:00,
2015-01-30 12:41:00,49.4,29.0,30.32,NNW,338,3.0,11.0,45,0.00,,,0.00,weatherlink.com 1.10,2015-01-30 18:41:00,
2015-01-30 12:56:00,49.8,29.0,30.32,NNE,18,5.0,14.0,45,0.00,,,0.00,weatherlink.com 1.10,2015-01-30 18:56:00,
2015-01-30 13:11:00,50.1,29.0,30.31,NNE,12,5.0,14.0,44,0.00,,,0.00,weatherlink.com 1.10,2015-01-30 19:11:00,
2015-01-30 13:26:00,50.6,29.0,30.30,NNE,20,12.0,13.0,43,0.00,,,0.00,weatherlink.com 1.10,2015-01-30 19:26:00,
2015-01-30 13:41:00,50.8,28.0,30.30,NNE,13,9.0,13.0,42,0.00,,,0.00,weatherlink.com 1.10,2015-01-30 19:41:00,
2015-01-30 13:56:00,51.2,29.0,30.30,NNE,32,5.0,10.0,42,0.00,,,0.00,weatherlink.com 1.10,2015-01-30 19:56:00,
2015-01-30 14:11:00,51.6,29.0,30.29,NNE,30,6.0,12.0,42,0.00,,,0.00,weatherlink.com 1.10,2015-01-30 20:11:00,
2015-01-30 14:26:00,51.7,28.0,30.29,NE,40,7.0,12.0,40,0.00,,,0.00,weatherlink.com 1.10,2015-01-30 20:26:00,
2015-01-30 14:41:00,51.7,28.0,30.30,NNW,334,4.0,13.0,40,0.00,,,0.00,weatherlink.com 1.10,2015-01-30 20:41:00,
2015-01-30 14:56:00,51.4,28.0,30.29,NNE,16,3.0,12.0,40,0.00,,,0.00,weatherlink.com 1.10,2015-01-30 20:56:00,
2015-01-30 15:11:00,51.6,28.0,30.29,East,100,3.0,10.0,41,0.00,,,0.00,weatherlink.com 1.10,2015-01-30 21:11:00,
2015-01-30 15:26:00,51.4,28.0,30.30,NW,316,1.0,14.0,40,0.00,,,0.00,weatherlink.com 1.10,2015-01-30 21:26:00,
2015-01-30 15:41:00,51.2,27.0,30.30,NNW,338,7.0,10.0,39,0.00,,,0.00,weatherlink.com 1.10,2015-01-30 21:41:00,
2015-01-30 15:56:00,50.6,27.0,30.30,NNE,30,6.0,10.0,40,0.00,,,0.00,weatherlink.com 1.10,2015-01-30 21:56:00,
2015-01-30 16:11:00,50.1,26.0,30.30,North,1,4.0,9.0,40,0.00,,,0.00,weatherlink.com 1.10,2015-01-30 22:11:00,
2015-01-30 16:26:00,49.7,27.0,30.31,North,8,4.0,9.0,41,0.00,,,0.00,weatherlink.com 1.10,2015-01-30 22:26:00,
2015-01-30 16:41:00,49.2,26.0,30.30,WNW,287,1.0,7.0,41,0.00,,,0.00,weatherlink.com 1.10,2015-01-30 22:41:00,
2015-01-30 16:56:00,48.6,26.0,30.31,North,353,4.0,10.0,41,0.00,,,0.00,weatherlink.com 1.10,2015-01-30 22:56:00,
2015-01-30 17:11:00,47.9,26.0,30.31,NNW,345,2.0,6.0,43,0.00,,,0.00,weatherlink.com 1.10,2015-01-30 23:11:00,
2015-01-30 17:27:00,47.2,26.0,30.32,WNW,284,0.0,6.0,44,0.00,,,0.00,weatherlink.com 1.10,2015-01-30 23:27:00,
2015-01-30 17:41:00,46.1,27.0,30.32,NNW,332,0.0,2.0,47,0.00,,,0.00,weatherlink.com 1.10,2015-01-30 23:41:00,
2015-01-30 17:57:00,45.5,26.0,30.32,NNE,23,2.0,5.0,47,0.00,,,0.00,weatherlink.com 1.10,2015-01-30 23:57:00,
2015-01-30 18:11:00,44.9,26.0,30.32,NNE,21,1.0,3.0,48,0.00,,,0.00,weatherlink.com 1.10,2015-01-31 00:11:00,
2015-01-30 18:26:00,44.4,26.0,30.33,NNW,338,0.0,3.0,49,0.00,,,0.00,weatherlink.com 1.10,2015-01-31 00:26:00,
2015-01-30 18:41:00,44.0,26.0,30.34,NNE,25,1.0,4.0,49,0.00,,,0.00,weatherlink.com 1.10,2015-01-31 00:41:00,
2015-01-30 18:56:00,43.9,26.0,30.34,NNW,338,1.0,4.0,50,0.00,,,0.00,weatherlink.com 1.10,2015-01-31 00:56:00,
2015-01-30 19:11:00,43.3,26.0,30.34,NNE,17,0.0,4.0,51,0.00,,,0.00,weatherlink.com 1.10,2015-01-31 01:11:00,
2015-01-30 19:26:00,41.7,26.0,30.35,North,8,0.0,0.0,55,0.00,,,0.00,weatherlink.com 1.10,2015-01-31 01:26:00,
2015-01-30 19:41:00,39.9,26.0,30.35,North,8,0.0,0.0,58,0.00,,,0.00,weatherlink.com 1.10,2015-01-31 01:41:00,
2015-01-30 19:56:00,38.8,25.0,30.36,North,8,0.0,0.0,59,0.00,,,0.00,weatherlink.com 1.10,2015-01-31 01:56:00,
2015-01-30 20:11:00,37.7,26.0,30.36,North,8,0.0,0.0,63,0.00,,,0.00,weatherlink.com 1.10,2015-01-31 02:11:00,
2015-01-30 20:26:00,37.7,26.0,30.35,North,360,1.0,1.0,63,0.00,,,0.00,weatherlink.com 1.10,2015-01-31 02:26:00,
2015-01-30 20:41:00,38.4,26.0,30.35,NW,309,0.0,1.0,62,0.00,,,0.00,weatherlink.com 1.10,2015-01-31 02:41:00,
2015-01-30 20:56:00,37.3,27.0,30.35,NW,321,0.0,0.0,66,0.00,,,0.00,weatherlink.com 1.10,2015-01-31 02:56:00,
2015-01-30 21:11:00,35.0,26.0,30.35,NW,321,0.0,0.0,71,0.00,,,0.00,weatherlink.com 1.10,2015-01-31 03:11:00,
2015-01-30 21:26:00,35.2,27.0,30.35,NW,321,0.0,0.0,72,0.00,,,0.00,weatherlink.com 1.10,2015-01-31 03:26:00,
2015-01-30 21:41:00,34.9,26.0,30.35,NW,320,0.0,0.0,71,0.00,,,0.00,weatherlink.com 1.10,2015-01-31 03:41:00,
2015-01-30 21:56:00,35.0,27.0,30.35,NW,321,0.0,0.0,72,0.00,,,0.00,weatherlink.com 1.10,2015-01-31 03:56:00,
2015-01-30 22:11:00,36.1,26.0,30.35,NW,323,1.0,2.0,68,0.00,,,0.00,weatherlink.com 1.10,2015-01-31 04:11:00,
2015-01-30 22:26:00,36.5,26.0,30.35,NW,312,0.0,2.0,66,0.00,,,0.00,weatherlink.com 1.10,2015-01-31 04:26:00,
2015-01-30 22:41:00,36.3,26.0,30.35,NNE,27,0.0,1.0,66,0.00,,,0.00,weatherlink.com 1.10,2015-01-31 04:41:00,
2015-01-30 22:56:00,34.1,26.0,30.34,NNE,27,0.0,0.0,71,0.00,,,0.00,weatherlink.com 1.10,2015-01-31 04:56:00,
2015-01-30 23:12:00,32.9,25.0,30.34,NNE,27,0.0,0.0,73,0.00,,,0.00,weatherlink.com 1.10,2015-01-31 05:12:00,